createdAt,value
2022-12-20T00:02:04.034Z,2.30
2022-12-20T00:04:33.617Z,2.37
2022-12-20T00:07:03.056Z,2.20
2022-12-20T00:09:32.496Z,1.80
2022-12-20T00:12:02.090Z,2.23
2022-12-20T00:14:31.542Z,2.00
2022-12-20T00:17:00.999Z,2.00
2022-12-20T00:19:30.401Z,2.40
2022-12-20T00:21:59.841Z,3.50
2022-12-20T00:24:29.268Z,3.37
2022-12-20T00:26:58.708Z,4.00
2022-12-20T00:29:28.131Z,3.37
2022-12-20T00:31:57.619Z,2.80
2022-12-20T00:34:27.075Z,2.27
2022-12-20T00:36:56.518Z,2.67
2022-12-20T00:39:25.960Z,2.97
2022-12-20T00:41:55.386Z,2.30
2022-12-20T00:44:24.811Z,3.00
2022-12-20T00:46:54.386Z,2.23
2022-12-20T00:49:23.812Z,2.07
2022-12-20T00:51:53.276Z,2.47
2022-12-20T00:54:22.709Z,1.93
2022-12-20T00:56:52.203Z,2.70
2022-12-20T00:59:22.772Z,2.47
2022-12-20T01:01:53.046Z,2.03
2022-12-20T01:04:22.762Z,2.20
2022-12-20T01:06:52.200Z,2.67
2022-12-20T01:09:21.623Z,2.80
2022-12-20T01:11:51.045Z,2.50
2022-12-20T01:14:20.550Z,2.50
2022-12-20T01:16:50.038Z,1.90
2022-12-20T01:19:20.590Z,2.70
2022-12-20T01:21:50.031Z,2.13
2022-12-20T01:24:21.458Z,2.77
2022-12-20T01:26:50.900Z,3.13
2022-12-20T01:29:20.325Z,1.90
2022-12-20T01:31:49.906Z,2.57
2022-12-20T01:34:19.422Z,2.40
2022-12-20T01:36:49.530Z,2.40
2022-12-20T01:39:19.220Z,2.20
2022-12-20T01:41:49.516Z,2.30
2022-12-20T01:44:23.568Z,1.83
2022-12-20T01:46:53.993Z,2.30
2022-12-20T01:49:45.684Z,2.10
2022-12-20T01:52:28.525Z,1.67
2022-12-20T01:55:05.591Z,1.90
2022-12-20T01:57:57.450Z,2.50
2022-12-20T02:00:27.463Z,1.93
2022-12-20T02:03:03.640Z,2.20
2022-12-20T02:05:40.476Z,2.70
2022-12-20T02:08:13.770Z,2.70
2022-12-20T02:11:08.814Z,2.93
2022-12-20T02:13:57.515Z,2.17
2022-12-20T02:16:31.170Z,2.47
2022-12-20T02:19:05.238Z,2.53
2022-12-20T02:21:42.139Z,3.00
2022-12-20T02:24:36.624Z,2.20
2022-12-20T02:27:22.582Z,3.37
2022-12-20T02:30:08.338Z,2.80
2022-12-20T02:32:51.351Z,3.00
2022-12-20T02:35:25.420Z,2.20
2022-12-20T02:37:59.356Z,2.17
2022-12-20T02:40:42.498Z,2.53
2022-12-20T02:43:31.530Z,2.80
2022-12-20T02:46:04.668Z,2.57
2022-12-20T02:48:38.201Z,2.10
2022-12-20T02:51:09.920Z,3.37
2022-12-20T02:53:42.999Z,2.53
2022-12-20T02:56:36.515Z,2.20
2022-12-20T02:59:18.894Z,2.63
2022-12-20T03:01:55.866Z,2.60
2022-12-20T03:04:35.601Z,2.40
2022-12-20T03:07:14.926Z,2.33
2022-12-20T03:09:46.469Z,2.30
2022-12-20T03:12:18.047Z,3.27
2022-12-20T03:14:47.481Z,2.67
2022-12-20T03:17:17.001Z,3.10
2022-12-20T03:19:46.430Z,2.70
2022-12-20T03:22:15.879Z,2.00
2022-12-20T03:24:45.321Z,2.50
2022-12-20T03:27:14.790Z,2.40
2022-12-20T03:29:45.954Z,2.17
2022-12-20T03:32:15.401Z,1.90
2022-12-20T03:34:44.825Z,2.27
2022-12-20T03:37:14.344Z,3.10
2022-12-20T03:39:43.777Z,2.20
2022-12-20T03:42:13.272Z,2.07
2022-12-20T03:44:42.890Z,2.70
2022-12-20T03:47:12.460Z,2.37
2022-12-20T03:49:41.961Z,2.03
2022-12-20T03:52:14.026Z,2.30
2022-12-20T03:54:43.522Z,2.13
2022-12-20T03:57:12.983Z,3.10
2022-12-20T03:59:43.399Z,2.87
2022-12-20T04:02:13.068Z,2.10
2022-12-20T04:04:42.544Z,2.23
2022-12-20T04:07:12.390Z,2.53
2022-12-20T04:09:41.829Z,2.70
2022-12-20T04:12:11.260Z,2.60
2022-12-20T04:14:40.697Z,2.30
2022-12-20T04:17:10.144Z,2.43
2022-12-20T04:19:39.579Z,2.30
2022-12-20T04:22:09.488Z,1.87
2022-12-20T04:24:39.595Z,1.67
2022-12-20T04:27:09.279Z,1.80
2022-12-20T04:29:38.713Z,1.90
2022-12-20T04:32:08.148Z,2.40
2022-12-20T04:34:37.583Z,2.10
2022-12-20T04:37:07.031Z,2.20
2022-12-20T04:39:36.476Z,2.40
2022-12-20T04:42:05.914Z,1.93
2022-12-20T04:44:35.347Z,1.80
2022-12-20T04:47:04.787Z,1.93
2022-12-20T04:49:34.238Z,2.17
2022-12-20T04:52:21.848Z,2.00
2022-12-20T04:54:51.298Z,1.90
2022-12-20T04:57:20.737Z,1.47
2022-12-20T04:59:50.175Z,2.20
2022-12-20T05:02:19.865Z,2.30
2022-12-20T05:04:49.353Z,2.83
2022-12-20T05:07:18.815Z,3.13
2022-12-20T05:09:48.292Z,3.17
2022-12-20T05:12:17.829Z,2.40
2022-12-20T05:14:47.251Z,2.37
2022-12-20T05:17:16.711Z,2.77
2022-12-20T05:19:46.131Z,3.60
2022-12-20T05:22:34.288Z,3.00
2022-12-20T05:25:21.738Z,3.60
2022-12-20T05:27:51.250Z,4.43
2022-12-20T05:30:20.818Z,3.20
2022-12-20T05:32:50.895Z,3.50
2022-12-20T05:35:20.699Z,3.50
2022-12-20T05:37:50.215Z,3.40
2022-12-20T05:40:19.721Z,2.50
2022-12-20T05:42:49.184Z,2.20
2022-12-20T05:45:18.604Z,3.13
2022-12-20T05:47:48.062Z,2.83
2022-12-20T05:50:19.131Z,2.60
2022-12-20T05:52:48.806Z,2.50
2022-12-20T05:55:18.482Z,2.60
2022-12-20T05:57:47.931Z,2.50
2022-12-20T06:00:17.668Z,2.37
2022-12-20T06:02:47.301Z,2.20
2022-12-20T06:05:16.911Z,1.80
2022-12-20T06:07:46.329Z,1.70
2022-12-20T06:10:15.776Z,1.63
2022-12-20T06:12:45.217Z,2.40
2022-12-20T06:15:15.763Z,3.20
2022-12-20T06:17:45.643Z,3.10
2022-12-20T06:20:15.080Z,2.53
2022-12-20T06:22:45.212Z,2.27
2022-12-20T06:25:15.253Z,2.00
2022-12-20T06:27:45.075Z,2.30
2022-12-20T06:30:15.625Z,2.17
2022-12-20T06:32:45.252Z,2.10
2022-12-20T06:35:15.001Z,2.87
2022-12-20T06:37:44.751Z,2.30
2022-12-20T06:40:15.314Z,2.47
2022-12-20T06:42:44.934Z,3.40
2022-12-20T06:45:14.632Z,3.93
2022-12-20T06:47:44.666Z,3.10
2022-12-20T06:50:14.252Z,2.47
2022-12-20T06:52:43.713Z,2.20
2022-12-20T06:55:13.171Z,2.40
2022-12-20T06:57:43.131Z,1.90
2022-12-20T07:00:13.533Z,2.23
2022-12-20T07:02:43.095Z,2.10
2022-12-20T07:05:12.717Z,1.90
2022-12-20T07:07:45.179Z,1.80
2022-12-20T07:10:13.331Z,2.23
2022-12-20T07:12:47.895Z,1.80
2022-12-20T07:15:14.331Z,2.07
2022-12-20T07:17:43.784Z,2.40
2022-12-20T07:20:14.742Z,2.13
2022-12-20T07:22:44.418Z,2.10
2022-12-20T07:25:13.850Z,1.57
2022-12-20T07:27:43.298Z,1.43
2022-12-20T07:30:13.442Z,2.10
2022-12-20T07:32:43.087Z,2.10
2022-12-20T07:35:14.318Z,2.23
2022-12-20T07:37:44.686Z,1.77
2022-12-20T07:40:16.198Z,1.80
2022-12-20T07:42:48.915Z,1.63
2022-12-20T07:45:17.406Z,1.80
2022-12-20T07:47:46.895Z,1.53
2022-12-20T07:50:16.496Z,1.83
2022-12-20T07:52:49.947Z,1.50
2022-12-20T07:55:19.844Z,1.87
2022-12-20T07:57:56.761Z,2.00
2022-12-20T08:00:27.082Z,1.80
2022-12-20T08:03:10.321Z,1.70
2022-12-20T08:05:44.355Z,2.40
2022-12-20T08:08:14.624Z,2.27
2022-12-20T08:10:44.449Z,2.00
2022-12-20T08:13:14.168Z,1.50
2022-12-20T08:15:43.670Z,1.90
2022-12-20T08:18:13.118Z,1.80
2022-12-20T08:20:42.625Z,1.92
2022-12-20T08:23:12.128Z,1.80
2022-12-20T08:25:42.412Z,2.20
2022-12-20T08:28:12.039Z,1.70
2022-12-20T08:30:41.552Z,1.93
2022-12-20T08:33:11.006Z,1.83
2022-12-20T08:35:40.448Z,1.70
2022-12-20T08:38:09.899Z,1.77
2022-12-20T08:40:39.342Z,2.30
2022-12-20T08:43:10.431Z,1.80
2022-12-20T08:45:40.289Z,1.80
2022-12-20T08:48:09.952Z,1.77
2022-12-20T08:50:39.669Z,2.00
2022-12-20T08:53:09.130Z,1.80
2022-12-20T08:55:38.565Z,1.63
2022-12-20T08:58:08.806Z,1.40
2022-12-20T09:00:38.691Z,2.87
2022-12-20T09:03:11.192Z,2.83
2022-12-20T09:05:47.214Z,2.30
2022-12-20T09:08:17.721Z,2.87
2022-12-20T09:10:47.186Z,2.13
2022-12-20T09:13:16.615Z,2.27
2022-12-20T09:15:46.111Z,2.03
2022-12-20T09:18:15.524Z,2.10
2022-12-20T09:20:48.489Z,1.80
2022-12-20T09:23:17.956Z,1.70
2022-12-20T09:25:53.449Z,1.70
2022-12-20T09:28:18.875Z,1.50
2022-12-20T09:30:48.369Z,2.10
2022-12-20T09:33:17.916Z,2.27
2022-12-20T09:35:48.904Z,2.00
2022-12-20T09:38:18.681Z,1.53
2022-12-20T09:40:52.334Z,2.10
2022-12-20T09:43:24.206Z,1.97
2022-12-20T09:45:58.489Z,1.40
2022-12-20T09:48:41.709Z,2.50
2022-12-20T09:51:36.657Z,2.57
2022-12-20T09:54:26.577Z,2.20
2022-12-20T09:57:09.322Z,1.80
2022-12-20T09:59:49.024Z,1.63
2022-12-20T10:04:50.161Z,1.60
2022-12-20T10:07:39.296Z,2.80
2022-12-20T10:10:54.081Z,2.00
2022-12-20T10:13:47.257Z,2.20
2022-12-20T10:16:26.980Z,2.37
2022-12-20T10:19:09.917Z,2.13
2022-12-20T10:21:58.858Z,2.97
2022-12-20T10:24:32.572Z,2.20
2022-12-20T10:27:18.384Z,2.90
2022-12-20T10:29:51.247Z,3.93
2022-12-20T10:32:26.457Z,2.80
2022-12-20T10:35:33.865Z,2.50
2022-12-20T10:38:17.115Z,3.00
2022-12-20T10:41:20.099Z,2.53
2022-12-20T10:43:25.017Z,2.00
2022-12-20T10:46:09.778Z,1.90
2022-12-20T10:48:43.098Z,2.40
2022-12-20T10:51:17.555Z,2.50
2022-12-20T10:54:05.213Z,2.90
2022-12-20T10:56:36.961Z,2.43
2022-12-20T10:59:21.270Z,2.13
2022-12-20T11:01:51.834Z,2.30
2022-12-20T11:04:32.554Z,1.93
2022-12-20T11:07:06.194Z,2.30
2022-12-20T11:09:38.726Z,2.77
2022-12-20T11:12:17.650Z,2.03
2022-12-20T11:14:49.423Z,1.63
2022-12-20T11:17:45.811Z,2.20
2022-12-20T11:20:41.431Z,2.20
2022-12-20T11:23:20.730Z,2.20
2022-12-20T11:26:03.811Z,2.10
2022-12-20T11:28:49.665Z,1.87
2022-12-20T11:31:41.448Z,2.00
2022-12-20T11:34:15.600Z,1.77
2022-12-20T11:37:11.881Z,1.90
2022-12-20T11:40:11.445Z,1.73
2022-12-20T11:42:45.503Z,1.90
2022-12-20T11:45:34.609Z,1.87
2022-12-20T11:48:44.753Z,1.77
2022-12-20T11:51:46.537Z,1.50
2022-12-20T11:54:26.758Z,1.50
2022-12-20T11:57:00.791Z,2.17
2022-12-20T11:59:58.715Z,1.90
2022-12-20T12:02:58.549Z,2.90
2022-12-20T12:05:45.460Z,2.67
2022-12-20T12:08:24.680Z,2.47
2022-12-20T12:11:07.235Z,2.33
2022-12-20T12:13:41.478Z,2.20
2022-12-20T12:16:24.636Z,1.87
2022-12-20T12:18:54.965Z,1.67
2022-12-20T12:21:46.774Z,2.17
2022-12-20T12:24:32.614Z,2.40
2022-12-20T12:27:02.964Z,3.20
2022-12-20T12:29:35.449Z,2.20
2022-12-20T12:32:18.294Z,2.13
2022-12-20T12:35:25.840Z,2.80
2022-12-20T12:38:18.561Z,2.37
2022-12-20T12:41:18.375Z,2.33
2022-12-20T12:43:54.917Z,2.77
2022-12-20T12:46:31.893Z,2.70
2022-12-20T12:49:09.131Z,2.23
2022-12-20T12:51:46.198Z,2.10
2022-12-20T12:54:26.181Z,2.03
2022-12-20T12:57:03.286Z,2.00
2022-12-20T12:59:40.141Z,2.30
2022-12-20T13:02:21.224Z,2.00
2022-12-20T13:05:13.366Z,2.13
2022-12-20T13:07:44.910Z,2.17
2022-12-20T13:10:23.484Z,1.80
2022-12-20T13:13:00.098Z,2.20
2022-12-20T13:15:34.597Z,2.00
2022-12-20T13:18:17.994Z,1.90
2022-12-20T13:21:09.032Z,2.00
2022-12-20T13:23:38.479Z,2.00
2022-12-20T13:26:28.824Z,2.57
2022-12-20T13:29:01.330Z,2.70
2022-12-20T13:31:33.898Z,2.30
2022-12-20T13:34:04.000Z,2.43
2022-12-20T13:36:39.234Z,2.40
2022-12-20T13:39:31.527Z,2.63
2022-12-20T13:42:36.513Z,2.40
2022-12-20T13:45:10.711Z,1.73
2022-12-20T13:47:47.192Z,2.23
2022-12-20T13:50:34.952Z,2.50
2022-12-20T13:53:06.001Z,2.03
2022-12-20T13:55:39.640Z,2.10
2022-12-20T13:58:22.417Z,2.17
2022-12-20T14:00:53.049Z,2.50
2022-12-20T14:03:27.618Z,2.50
2022-12-20T14:06:07.282Z,2.93
2022-12-20T14:08:41.565Z,2.47
2022-12-20T14:11:18.683Z,2.50
2022-12-20T14:13:58.530Z,2.00
2022-12-20T14:16:31.557Z,2.00
2022-12-20T14:19:15.412Z,1.90
2022-12-20T14:21:47.157Z,2.00
2022-12-20T14:24:23.520Z,2.60
2022-12-20T14:26:55.637Z,2.40
2022-12-20T14:29:32.364Z,2.70
2022-12-20T14:32:01.817Z,2.30
2022-12-20T14:34:41.483Z,2.50
2022-12-20T14:37:40.467Z,2.13
2022-12-20T14:40:20.417Z,2.00
2022-12-20T14:42:50.065Z,2.33
2022-12-20T14:45:28.694Z,1.83
2022-12-20T14:48:08.625Z,2.00
2022-12-20T14:50:43.895Z,2.67
2022-12-20T14:53:28.028Z,2.30
2022-12-20T14:55:58.174Z,2.47
2022-12-20T14:58:32.414Z,2.60
2022-12-20T15:01:06.292Z,2.13
2022-12-20T15:03:36.110Z,2.00
2022-12-20T15:06:06.146Z,2.60
2022-12-20T15:08:38.769Z,2.10
2022-12-20T15:11:15.506Z,1.90
2022-12-20T15:13:49.875Z,2.20
2022-12-20T15:16:27.145Z,2.30
2022-12-20T15:19:03.350Z,2.00
2022-12-20T15:21:46.359Z,2.30
2022-12-20T15:24:22.869Z,2.60
2022-12-20T15:26:52.325Z,2.40
2022-12-20T15:29:28.178Z,2.37
2022-12-20T15:32:07.891Z,2.10
2022-12-20T15:34:40.210Z,3.07
2022-12-20T15:37:18.320Z,2.50
2022-12-20T15:39:46.319Z,2.00
2022-12-20T15:42:19.868Z,2.00
2022-12-20T15:44:49.435Z,1.97
2022-12-20T15:47:19.267Z,2.27
2022-12-20T15:49:50.684Z,2.17
2022-12-20T15:52:25.322Z,2.20
2022-12-20T15:54:54.830Z,3.07
2022-12-20T15:57:24.297Z,2.27
2022-12-20T16:00:01.177Z,2.80
2022-12-20T16:02:31.803Z,2.37
2022-12-20T16:05:01.737Z,2.50
2022-12-20T16:07:31.485Z,2.23
2022-12-20T16:10:00.929Z,2.40
2022-12-20T16:12:36.496Z,2.77
2022-12-20T16:15:08.138Z,2.73
2022-12-20T16:17:37.581Z,2.90
2022-12-20T16:20:08.692Z,2.30
2022-12-20T16:22:38.134Z,2.30
2022-12-20T16:25:08.398Z,2.60
2022-12-20T16:27:37.854Z,2.53
2022-12-20T16:30:08.399Z,3.00
2022-12-20T16:32:37.923Z,2.90
2022-12-20T16:35:07.664Z,2.60
2022-12-20T16:37:39.104Z,1.90
2022-12-20T16:40:09.583Z,2.10
2022-12-20T16:42:39.410Z,2.33
2022-12-20T16:45:12.493Z,2.33
2022-12-20T16:47:41.941Z,2.40
2022-12-20T16:50:11.724Z,2.13
2022-12-20T16:52:41.916Z,2.43
2022-12-20T16:55:28.038Z,3.07
2022-12-20T16:57:57.482Z,2.50
2022-12-20T17:00:28.334Z,2.47
2022-12-20T17:02:59.306Z,2.53
2022-12-20T17:05:33.423Z,3.10
2022-12-20T17:08:03.136Z,3.57
2022-12-20T17:10:32.595Z,2.70
2022-12-20T17:13:02.033Z,3.30
2022-12-20T17:15:33.469Z,3.83
2022-12-20T17:18:02.926Z,2.73
2022-12-20T17:20:36.762Z,2.90
2022-12-20T17:23:03.543Z,2.70
2022-12-20T17:25:36.858Z,2.20
2022-12-20T17:28:06.621Z,2.33
2022-12-20T17:30:36.054Z,2.30
2022-12-20T17:33:05.759Z,2.00
2022-12-20T17:35:35.862Z,2.67
2022-12-20T17:38:06.951Z,3.63
2022-12-20T17:40:36.396Z,2.83
2022-12-20T17:43:07.483Z,2.40
2022-12-20T17:45:38.738Z,2.70
2022-12-20T17:48:08.637Z,2.30
2022-12-20T17:50:38.547Z,2.50
2022-12-20T17:53:08.063Z,2.27
2022-12-20T17:55:37.519Z,2.10
2022-12-20T17:58:06.983Z,2.00
2022-12-20T18:00:39.412Z,1.67
2022-12-20T18:03:07.911Z,2.40
2022-12-20T18:05:40.832Z,2.10
2022-12-20T18:08:10.830Z,3.13
2022-12-20T18:10:40.287Z,3.23
2022-12-20T18:13:09.900Z,2.83
2022-12-20T18:15:40.704Z,3.60
2022-12-20T18:18:10.141Z,3.50
2022-12-20T18:20:39.586Z,2.37
2022-12-20T18:23:09.150Z,2.30
2022-12-20T18:25:38.592Z,2.03
2022-12-20T18:28:08.040Z,2.07
2022-12-20T18:30:37.506Z,2.37
2022-12-20T18:33:07.011Z,1.90
2022-12-20T18:35:36.463Z,2.27
2022-12-20T18:38:07.103Z,2.40
2022-12-20T18:40:36.548Z,2.83
2022-12-20T18:43:06.639Z,2.57
2022-12-20T18:45:36.931Z,2.20
2022-12-20T18:48:06.451Z,2.87
2022-12-20T18:50:38.096Z,2.60
2022-12-20T18:53:07.556Z,2.50
2022-12-20T18:55:39.965Z,2.60
2022-12-20T18:58:09.413Z,2.63
2022-12-20T19:00:39.181Z,2.13
2022-12-20T19:03:08.821Z,3.87
2022-12-20T19:05:38.624Z,3.57
2022-12-20T19:08:08.076Z,3.00
2022-12-20T19:10:37.525Z,3.30
2022-12-20T19:13:06.999Z,3.80
2022-12-20T19:15:36.423Z,4.70
2022-12-20T19:18:08.478Z,3.50
2022-12-20T19:20:39.313Z,3.50
2022-12-20T19:23:09.303Z,3.37
2022-12-20T19:25:39.239Z,2.90
2022-12-20T19:28:08.700Z,3.60
2022-12-20T19:30:38.309Z,2.80
2022-12-20T19:33:07.784Z,3.00
2022-12-20T19:38:08.406Z,2.80
2022-12-20T19:40:37.836Z,2.57
2022-12-20T19:43:07.317Z,2.30
2022-12-20T19:45:40.506Z,3.00
2022-12-20T19:48:10.290Z,2.63
2022-12-20T19:50:39.921Z,3.10
2022-12-20T19:53:10.579Z,2.50
2022-12-20T19:55:40.035Z,3.13
2022-12-20T19:58:09.481Z,2.50
2022-12-20T20:00:38.962Z,2.40
2022-12-20T20:03:08.704Z,2.83
2022-12-20T20:05:38.377Z,2.83
2022-12-20T20:08:08.209Z,2.63
2022-12-20T20:10:38.363Z,2.33
2022-12-20T20:13:07.833Z,2.60
2022-12-20T20:15:37.579Z,2.87
2022-12-20T20:18:07.435Z,2.23
2022-12-20T20:20:39.962Z,2.20
2022-12-20T20:23:09.477Z,2.00
2022-12-20T20:25:40.718Z,1.83
2022-12-20T20:28:10.207Z,1.73
2022-12-20T20:30:42.847Z,1.73
2022-12-20T20:33:12.905Z,1.80
2022-12-20T20:35:43.047Z,1.50
2022-12-20T20:38:13.458Z,1.70
2022-12-20T20:40:42.891Z,1.57
2022-12-20T20:43:14.318Z,2.07
2022-12-20T20:45:43.878Z,1.80
2022-12-20T20:48:13.430Z,1.77
2022-12-20T20:50:44.294Z,2.37
2022-12-20T20:53:14.988Z,2.10
2022-12-20T20:55:45.211Z,1.83
2022-12-20T20:58:16.053Z,1.57
2022-12-20T21:00:45.493Z,1.90
2022-12-20T21:03:15.094Z,1.50
2022-12-20T21:06:33.050Z,2.17
2022-12-20T21:08:17.285Z,2.40
2022-12-20T21:10:46.723Z,2.00
2022-12-20T21:13:17.974Z,2.23
2022-12-20T21:15:47.501Z,1.93
2022-12-20T21:18:16.956Z,2.80
2022-12-20T21:20:46.381Z,2.90
2022-12-20T21:23:15.848Z,3.80
2022-12-20T21:25:45.315Z,4.70
2022-12-20T21:28:20.931Z,5.83
2022-12-20T21:30:45.992Z,4.40
2022-12-20T21:33:18.163Z,3.70
2022-12-20T21:35:53.736Z,3.13
2022-12-20T21:38:19.470Z,2.73
2022-12-20T21:40:48.919Z,3.40
2022-12-20T21:43:18.387Z,2.20
2022-12-20T21:45:51.480Z,2.40
2022-12-20T21:48:21.012Z,2.10
2022-12-20T21:51:03.836Z,1.73
2022-12-20T21:53:34.501Z,1.50
2022-12-20T21:56:04.524Z,1.87
2022-12-20T21:58:33.981Z,1.73
2022-12-20T22:01:08.017Z,1.60
2022-12-20T22:03:38.776Z,1.37
2022-12-20T22:06:08.366Z,1.53
2022-12-20T22:08:37.894Z,1.40
2022-12-20T22:11:14.057Z,1.80
2022-12-20T22:13:44.635Z,1.93
2022-12-20T22:16:22.451Z,2.70
2022-12-20T22:18:55.236Z,2.70
2022-12-20T22:21:28.894Z,2.70
2022-12-20T22:24:00.150Z,1.93
2022-12-20T22:26:33.197Z,2.70
2022-12-20T22:29:07.179Z,2.03
2022-12-20T22:31:37.702Z,2.77
2022-12-20T22:34:07.167Z,2.20
2022-12-20T22:36:37.154Z,2.80
2022-12-20T22:39:06.790Z,2.70
2022-12-20T22:41:36.630Z,2.60
2022-12-20T22:44:06.239Z,2.03
2022-12-20T22:46:35.954Z,2.00
2022-12-20T22:49:05.409Z,2.10
2022-12-20T22:51:34.930Z,2.23
2022-12-20T22:54:05.344Z,1.90
2022-12-20T22:56:34.951Z,2.30
2022-12-20T22:59:05.078Z,2.73
2022-12-20T23:01:34.627Z,2.03
2022-12-20T23:04:04.344Z,2.03
2022-12-20T23:06:33.782Z,1.90
2022-12-20T23:09:03.503Z,2.23
2022-12-20T23:11:50.710Z,2.20
2022-12-20T23:14:40.857Z,2.43
2022-12-20T23:17:11.854Z,2.53
2022-12-20T23:19:59.404Z,2.73
2022-12-20T23:22:41.070Z,2.60
2022-12-20T23:25:17.445Z,3.07
2022-12-20T23:27:50.547Z,2.30
2022-12-20T23:30:24.005Z,2.17
2022-12-20T23:32:55.588Z,2.20
2022-12-20T23:35:25.867Z,2.17
2022-12-20T23:37:56.927Z,2.50
2022-12-20T23:40:26.448Z,2.60
2022-12-20T23:42:55.970Z,3.70
2022-12-20T23:45:25.394Z,2.43
2022-12-20T23:47:54.867Z,2.60
2022-12-20T23:50:24.313Z,2.57
2022-12-20T23:52:53.780Z,2.50
2022-12-20T23:55:23.236Z,3.07
2022-12-20T23:57:52.683Z,2.60
